Time;durP1;ratioP1;P1;durP2;ratioP2;P2;SDS_P1;SDS_P2;PMS_P1;PMS_P2;Temp;Humidity;BMP_temperature;BMP_pressure;BME280_temperature;BME280_humidity;BME280_pressure;Samples;Min_cycle;Max_cycle;Signal;HPM_P1;HPM_P2
2023/12/17 00:01:38;;;;;;;28.23;13.77;;;8.90;25.80;;;;;;6208023;23;20602;-84
2023/12/17 00:04:03;;;;;;;20.60;13.13;;;8.90;24.30;;;;;;6208950;23;20240;-85
2023/12/17 00:06:29;;;;;;;26.70;13.40;;;8.90;24.50;;;;;;6207835;23;20177;-85
2023/12/17 00:08:54;;;;;;;20.10;12.23;;;8.90;23.70;;;;;;6208022;23;20567;-84
2023/12/17 00:11:20;;;;;;;22.00;13.67;;;8.90;24.60;;;;;;6211248;23;20204;-85
2023/12/17 00:13:45;;;;;;;22.57;14.90;;;8.80;24.70;;;;;;6209796;23;20158;-85
2023/12/17 00:16:11;;;;;;;23.27;12.43;;;8.80;24.50;;;;;;6213345;23;20166;-84
2023/12/17 00:18:37;;;;;;;24.37;12.97;;;8.80;27.80;;;;;;6212223;23;20188;-84
2023/12/17 00:21:03;;;;;;;30.70;14.53;;;8.80;29.40;;;;;;6212324;23;20150;-84
2023/12/17 00:23:28;;;;;;;24.33;14.10;;;8.90;31.90;;;;;;6210600;23;20162;-84
2023/12/17 00:25:54;;;;;;;32.20;14.67;;;8.90;29.00;;;;;;6213146;23;20396;-84
2023/12/17 00:28:19;;;;;;;22.53;13.70;;;8.80;27.70;;;;;;6211378;23;20260;-83
2023/12/17 00:30:46;;;;;;;28.27;15.30;;;8.90;27.90;;;;;;6214966;23;20165;-84
2023/12/17 00:33:11;;;;;;;25.77;15.83;;;8.90;26.80;;;;;;6214341;23;20216;-84
2023/12/17 00:35:37;;;;;;;25.00;14.87;;;8.90;26.20;;;;;;6215037;23;20889;-85
2023/12/17 00:38:02;;;;;;;21.83;13.70;;;8.80;27.60;;;;;;6212683;23;20499;-85
2023/12/17 00:40:28;;;;;;;28.30;15.07;;;8.90;28.30;;;;;;6212852;23;20162;-84
2023/12/17 00:42:53;;;;;;;26.43;14.27;;;8.90;27.30;;;;;;6215191;23;20154;-85
2023/12/17 00:45:19;;;;;;;26.70;14.80;;;8.90;23.80;;;;;;6214375;23;20654;-85
2023/12/17 00:47:44;;;;;;;33.83;16.57;;;8.90;23.10;;;;;;6214429;23;20181;-84
2023/12/17 00:50:10;;;;;;;24.60;14.27;;;8.80;23.00;;;;;;6212642;23;20491;-85
2023/12/17 00:52:35;;;;;;;24.20;15.00;;;8.80;25.60;;;;;;6214891;23;20231;-84
2023/12/17 00:55:01;;;;;;;30.80;15.87;;;8.80;26.20;;;;;;6212738;23;20170;-85
2023/12/17 00:57:27;;;;;;;24.70;13.63;;;8.80;27.00;;;;;;6215343;23;20272;-84
2023/12/17 00:59:52;;;;;;;29.00;16.17;;;8.80;27.10;;;;;;6213073;23;20884;-86
2023/12/17 01:02:18;;;;;;;31.10;16.37;;;8.70;30.10;;;;;;6212695;23;20162;-85
2023/12/17 01:04:44;;;;;;;23.80;14.37;;;8.80;30.50;;;;;;6212195;23;20154;-84
2023/12/17 01:07:10;;;;;;;30.60;16.00;;;8.80;30.70;;;;;;6209731;23;20523;-83
2023/12/17 01:09:35;;;;;;;28.37;15.57;;;8.70;30.40;;;;;;6212158;23;20461;-85
2023/12/17 01:12:03;;;;;;;24.47;15.17;;;8.70;30.60;;;;;;6211867;23;20147;-85
2023/12/17 01:14:32;;;;;;;28.40;15.47;;;8.70;33.30;;;;;;6211500;23;20158;-85
2023/12/17 01:16:58;;;;;;;21.23;14.40;;;8.70;32.90;;;;;;6211794;23;20697;-85
2023/12/17 01:19:23;;;;;;;24.20;14.03;;;8.70;34.70;;;;;;6208849;23;20381;-86
2023/12/17 01:21:49;;;;;;;27.30;14.73;;;8.70;35.00;;;;;;6207955;23;20368;-86
2023/12/17 01:24:14;;;;;;;29.37;14.43;;;8.70;37.20;;;;;;6208933;23;20176;-85
2023/12/17 01:26:40;;;;;;;26.33;14.63;;;8.70;37.20;;;;;;6208648;23;20180;-85
2023/12/17 01:29:05;;;;;;;29.97;16.80;;;8.70;38.70;;;;;;6208477;23;20158;-84
2023/12/17 01:31:31;;;;;;;27.30;16.27;;;8.70;40.00;;;;;;6208547;23;20151;-85
2023/12/17 01:33:56;;;;;;;27.03;15.67;;;8.70;40.60;;;;;;6208004;23;20177;-85
2023/12/17 01:36:22;;;;;;;21.27;14.17;;;8.70;41.60;;;;;;6209852;23;20228;-84
2023/12/17 01:38:47;;;;;;;26.50;15.30;;;8.70;42.30;;;;;;6208828;23;20245;-84
2023/12/17 01:41:13;;;;;;;26.43;14.70;;;8.70;42.90;;;;;;6207355;23;20166;-84
2023/12/17 01:43:38;;;;;;;25.47;15.13;;;8.70;42.40;;;;;;6208545;23;20177;-84
2023/12/17 01:46:04;;;;;;;23.37;13.40;;;8.80;44.50;;;;;;6210234;23;20224;-84
2023/12/17 01:48:30;;;;;;;22.53;13.33;;;8.80;46.10;;;;;;6212120;23;20177;-83
2023/12/17 01:50:56;;;;;;;23.37;14.33;;;8.80;46.40;;;;;;6211302;23;20145;-84
2023/12/17 01:53:23;;;;;;;24.03;13.87;;;8.80;46.70;;;;;;6209602;23;20464;-84
2023/12/17 01:55:49;;;;;;;25.93;14.47;;;8.80;46.90;;;;;;6211511;23;20849;-84
2023/12/17 01:58:16;;;;;;;24.37;15.13;;;8.80;46.50;;;;;;6209851;23;20386;-85
2023/12/17 02:00:43;;;;;;;25.77;14.50;;;8.80;44.60;;;;;;6212055;23;20443;-84
2023/12/17 02:03:09;;;;;;;23.63;13.93;;;8.80;44.10;;;;;;6214804;23;20417;-85
2023/12/17 02:05:35;;;;;;;28.23;16.07;;;8.80;44.40;;;;;;6214006;23;20397;-84
2023/12/17 02:08:02;;;;;;;22.83;15.20;;;8.80;44.70;;;;;;6214058;23;20665;-85
2023/12/17 02:10:28;;;;;;;23.00;14.47;;;8.80;45.00;;;;;;6212487;23;20397;-85
2023/12/17 02:12:54;;;;;;;24.93;15.20;;;8.90;44.90;;;;;;6213818;23;20845;-85
2023/12/17 02:15:19;;;;;;;22.03;13.80;;;8.90;43.00;;;;;;6210024;23;20174;-85
2023/12/17 02:17:45;;;;;;;23.77;15.40;;;8.90;41.30;;;;;;6211346;23;20650;-85
2023/12/17 02:20:11;;;;;;;24.03;16.30;;;8.90;39.50;;;;;;6213098;23;20189;-86
2023/12/17 02:22:37;;;;;;;26.07;15.90;;;8.80;37.50;;;;;;6210665;23;20633;-86
2023/12/17 02:25:03;;;;;;;27.60;16.30;;;8.80;38.90;;;;;;6212166;23;20397;-85
2023/12/17 02:27:28;;;;;;;24.83;15.50;;;8.80;38.40;;;;;;6210767;23;20420;-84
2023/12/17 02:29:55;;;;;;;28.23;16.27;;;8.80;38.10;;;;;;6210758;23;20389;-85
2023/12/17 02:32:22;;;;;;;22.53;14.93;;;8.80;39.40;;;;;;6212259;23;20146;-85
2023/12/17 02:34:48;;;;;;;22.10;15.20;;;8.80;40.40;;;;;;6213237;23;20420;-85
2023/12/17 02:37:14;;;;;;;23.90;14.00;;;8.80;40.00;;;;;;6210493;23;20385;-85
2023/12/17 02:39:40;;;;;;;22.20;14.27;;;8.80;39.10;;;;;;6212389;23;20457;-84
2023/12/17 02:42:06;;;;;;;28.80;15.57;;;8.80;37.80;;;;;;6211102;23;20377;-84
2023/12/17 02:44:31;;;;;;;22.97;13.90;;;8.80;36.30;;;;;;6211663;23;20205;-85
2023/12/17 02:46:58;;;;;;;22.83;14.50;;;8.80;36.50;;;;;;6210850;23;20429;-85
2023/12/17 02:49:24;;;;;;;29.33;14.47;;;8.80;34.40;;;;;;6207420;23;20154;-85
2023/12/17 02:51:50;;;;;;;26.27;13.17;;;8.80;33.90;;;;;;6209923;23;20378;-84
2023/12/17 02:54:16;;;;;;;19.03;13.67;;;8.80;31.50;;;;;;6210416;23;20435;-84
2023/12/17 02:56:42;;;;;;;24.10;13.27;;;8.80;31.60;;;;;;6210668;23;20404;-84
2023/12/17 02:59:08;;;;;;;20.50;12.17;;;8.70;31.70;;;;;;6210126;23;20853;-86
2023/12/17 03:01:34;;;;;;;22.70;13.57;;;8.70;31.90;;;;;;6209587;23;20150;-84
2023/12/17 03:04:00;;;;;;;18.50;12.73;;;8.70;31.80;;;;;;6205564;22;20449;-84
2023/12/17 03:06:25;;;;;;;24.77;13.40;;;8.70;32.60;;;;;;6215417;23;20147;-80
2023/12/17 03:08:51;;;;;;;21.53;12.20;;;8.70;32.40;;;;;;6212947;23;20221;-83
2023/12/17 03:11:16;;;;;;;24.60;13.03;;;8.70;31.70;;;;;;6212954;23;20518;-83
2023/12/17 03:13:42;;;;;;;22.47;12.83;;;8.70;32.30;;;;;;6213618;23;20194;-84
2023/12/17 03:16:08;;;;;;;20.87;13.47;;;8.70;31.80;;;;;;6184332;23;20155;-82
2023/12/17 03:18:34;;;;;;;20.90;11.87;;;8.70;30.00;;;;;;6183723;23;20154;-82
2023/12/17 03:21:00;;;;;;;23.07;12.23;;;8.70;29.10;;;;;;6182711;23;20382;-84
2023/12/17 03:23:26;;;;;;;23.53;13.47;;;8.70;29.00;;;;;;6206430;23;20534;-83
2023/12/17 03:25:51;;;;;;;23.70;12.63;;;8.60;28.50;;;;;;6182516;23;20402;-82
2023/12/17 03:28:17;;;;;;;21.07;12.83;;;8.60;28.60;;;;;;6182288;23;20214;-83
2023/12/17 03:30:42;;;;;;;20.13;11.60;;;8.60;29.20;;;;;;6182321;23;20830;-84
2023/12/17 03:33:09;;;;;;;21.80;11.57;;;8.60;30.00;;;;;;6183814;23;20667;-83
2023/12/17 03:35:34;;;;;;;20.20;13.13;;;8.60;29.40;;;;;;6183811;23;20166;-82
2023/12/17 03:38:00;;;;;;;19.10;11.80;;;8.60;30.40;;;;;;6181907;23;20383;-83
2023/12/17 03:40:25;;;;;;;18.23;11.43;;;8.60;28.70;;;;;;6183905;23;20185;-82
2023/12/17 03:42:51;;;;;;;21.53;12.80;;;8.60;29.70;;;;;;6181862;23;20157;-81
2023/12/17 03:45:16;;;;;;;24.40;13.13;;;8.60;28.60;;;;;;6183317;23;20524;-82
2023/12/17 03:47:46;;;;;;;24.23;12.60;;;8.60;24.90;;;;;;6183496;23;20194;-84
2023/12/17 03:50:12;;;;;;;20.03;12.30;;;8.60;23.80;;;;;;6182397;23;20146;-84
2023/12/17 03:52:37;;;;;;;19.97;12.73;;;8.60;22.90;;;;;;6182897;23;20375;-83
2023/12/17 03:55:03;;;;;;;23.93;11.50;;;8.60;23.20;;;;;;6182744;23;20221;-84
2023/12/17 03:57:29;;;;;;;18.40;12.23;;;8.60;24.10;;;;;;6182777;23;20155;-83
2023/12/17 03:59:54;;;;;;;18.97;12.17;;;8.50;22.50;;;;;;6181029;23;20155;-84
2023/12/17 04:02:20;;;;;;;22.97;13.00;;;8.50;22.10;;;;;;6183312;23;20208;-84
2023/12/17 04:04:45;;;;;;;22.67;12.67;;;8.50;20.80;;;;;;6180460;23;20289;-82
2023/12/17 04:07:11;;;;;;;18.47;11.37;;;8.50;21.50;;;;;;6182693;23;20246;-82
2023/12/17 04:09:36;;;;;;;21.10;12.20;;;8.50;21.40;;;;;;6181998;23;20165;-82
2023/12/17 04:12:02;;;;;;;19.37;12.17;;;8.50;20.50;;;;;;6183280;23;20536;-83
2023/12/17 04:14:27;;;;;;;19.17;12.57;;;8.50;20.70;;;;;;6184816;23;20167;-83
2023/12/17 04:16:53;;;;;;;24.10;11.73;;;8.50;19.20;;;;;;6184456;23;20615;-83
2023/12/17 04:19:18;;;;;;;20.37;11.73;;;8.50;19.30;;;;;;6208844;23;20229;-82
2023/12/17 04:21:44;;;;;;;18.07;12.10;;;8.40;18.10;;;;;;6185854;23;20611;-83
2023/12/17 04:24:09;;;;;;;17.10;11.70;;;8.40;17.80;;;;;;6208406;23;20206;-82
2023/12/17 04:26:35;;;;;;;24.67;12.60;;;8.40;17.30;;;;;;6207568;23;20754;-82
2023/12/17 04:29:01;;;;;;;19.10;12.70;;;8.40;17.20;;;;;;6186731;23;20155;-84
2023/12/17 04:31:26;;;;;;;21.87;11.47;;;8.40;17.30;;;;;;6185050;23;20811;-82
2023/12/17 04:33:52;;;;;;;18.27;11.77;;;8.40;16.10;;;;;;6184848;23;20539;-84
2023/12/17 04:36:17;;;;;;;16.87;10.93;;;8.40;17.30;;;;;;6185040;23;20166;-86
2023/12/17 04:38:46;;;;;;;18.60;11.20;;;8.40;15.90;;;;;;6184303;23;20587;-82
2023/12/17 04:41:12;;;;;;;23.67;12.47;;;8.40;14.20;;;;;;6208432;23;20217;-83
2023/12/17 04:43:38;;;;;;;23.80;12.10;;;8.40;10.70;;;;;;6185358;23;20864;-82
2023/12/17 04:46:04;;;;;;;20.70;11.50;;;8.40;9.80;;;;;;6186141;23;20405;-83
2023/12/17 04:48:29;;;;;;;17.00;10.73;;;8.30;10.40;;;;;;6186208;23;20179;-83
2023/12/17 04:50:55;;;;;;;21.50;12.47;;;8.30;12.30;;;;;;6185462;23;20642;-83
2023/12/17 04:53:20;;;;;;;22.00;12.10;;;8.30;12.00;;;;;;6184965;23;20155;-83
2023/12/17 04:55:46;;;;;;;18.30;10.60;;;8.30;11.30;;;;;;6183545;23;20202;-84
2023/12/17 04:58:11;;;;;;;21.33;12.00;;;8.30;10.20;;;;;;6185400;23;20678;-83
2023/12/17 05:00:37;;;;;;;19.50;12.60;;;8.30;8.80;;;;;;6183036;23;20238;-85
2023/12/17 05:03:03;;;;;;;23.27;11.77;;;8.30;9.50;;;;;;6184607;23;20795;-83
2023/12/17 05:05:29;;;;;;;17.50;11.17;;;8.30;9.80;;;;;;6186352;23;20239;-83
2023/12/17 05:07:54;;;;;;;24.60;12.13;;;8.20;9.70;;;;;;6183261;23;20512;-82
2023/12/17 05:10:20;;;;;;;17.50;11.27;;;8.20;11.10;;;;;;6186215;23;20151;-85
2023/12/17 05:12:45;;;;;;;20.60;12.73;;;8.20;11.60;;;;;;6184836;23;20165;-82
2023/12/17 05:15:11;;;;;;;17.53;11.27;;;8.20;12.30;;;;;;6186298;23;20171;-84
2023/12/17 05:17:36;;;;;;;18.30;11.00;;;8.30;12.70;;;;;;6185827;23;20163;-85
2023/12/17 05:20:02;;;;;;;16.87;11.20;;;8.20;13.30;;;;;;6210473;23;20162;-84
2023/12/17 05:22:27;;;;;;;20.50;12.17;;;8.20;11.90;;;;;;6185590;23;20159;-83
2023/12/17 05:24:53;;;;;;;19.10;12.70;;;8.20;10.20;;;;;;6209925;23;20214;-84
2023/12/17 05:27:18;;;;;;;21.40;12.30;;;8.20;9.10;;;;;;6186438;23;20202;-84
2023/12/17 05:29:44;;;;;;;18.63;10.30;;;8.20;7.40;;;;;;6208024;23;20171;-84
2023/12/17 05:32:09;;;;;;;19.03;11.80;;;8.20;7.30;;;;;;6182044;23;20191;-83
2023/12/17 05:34:35;;;;;;;22.93;11.93;;;8.20;8.20;;;;;;6182375;23;20567;-81
2023/12/17 05:37:00;;;;;;;19.67;11.77;;;8.20;10.00;;;;;;6183232;23;20241;-83
2023/12/17 05:39:27;;;;;;;24.70;12.37;;;8.20;8.20;;;;;;6180823;23;20158;-84
2023/12/17 05:41:52;;;;;;;23.47;11.90;;;8.20;7.40;;;;;;6184288;23;20158;-85
2023/12/17 05:44:18;;;;;;;22.03;11.90;;;8.10;7.80;;;;;;6180714;23;20741;-83
2023/12/17 05:46:44;;;;;;;18.00;11.70;;;8.20;8.70;;;;;;6185081;23;20162;-85
2023/12/17 05:49:09;;;;;;;20.37;10.80;;;8.10;7.10;;;;;;6184701;23;20587;-85
2023/12/17 05:51:35;;;;;;;19.80;11.43;;;8.10;3.90;;;;;;6209371;23;20385;-82
2023/12/17 05:54:00;;;;;;;20.20;11.00;;;8.10;5.00;;;;;;6208509;23;20158;-84
2023/12/17 05:56:26;;;;;;;21.20;11.90;;;8.10;6.60;;;;;;6184503;23;20214;-81
2023/12/17 05:58:51;;;;;;;21.83;12.80;;;8.00;6.20;;;;;;6183957;23;20155;-83
2023/12/17 06:01:17;;;;;;;25.23;12.23;;;8.00;5.20;;;;;;6182339;23;20155;-84
2023/12/17 06:03:42;;;;;;;17.60;10.77;;;8.00;3.70;;;;;;6183991;23;20177;-85
2023/12/17 06:06:08;;;;;;;21.13;10.57;;;8.00;3.90;;;;;;6184108;23;20576;-83
2023/12/17 06:08:34;;;;;;;16.80;10.20;;;8.00;2.10;;;;;;6182346;23;20368;-84
2023/12/17 06:10:59;;;;;;;17.10;10.40;;;7.90;1.00;;;;;;6182972;23;20239;-83
2023/12/17 06:13:25;;;;;;;17.40;10.67;;;7.90;1.00;;;;;;6183916;23;20147;-83
2023/12/17 06:15:50;;;;;;;19.40;10.87;;;7.90;2.40;;;;;;6206640;23;20182;-81
2023/12/17 06:18:16;;;;;;;18.63;11.40;;;7.90;2.80;;;;;;6183897;23;20165;-85
2023/12/17 06:20:42;;;;;;;21.80;11.93;;;7.90;2.30;;;;;;6183491;23;20854;-83
2023/12/17 06:23:10;;;;;;;18.33;11.13;;;7.90;2.30;;;;;;6183576;23;20402;-83
2023/12/17 06:25:36;;;;;;;20.47;11.07;;;7.90;1.00;;;;;;6183044;23;20489;-84
2023/12/17 06:28:02;;;;;;;23.10;11.10;;;7.90;1.00;;;;;;6207378;23;20465;-85
2023/12/17 06:30:28;;;;;;;21.00;10.40;;;7.90;1.00;;;;;;6184214;23;20382;-83
2023/12/17 06:32:54;;;;;;;18.13;10.00;;;7.90;1.00;;;;;;6183963;23;20249;-83
2023/12/17 06:35:19;;;;;;;16.13;9.30;;;7.80;1.00;;;;;;6182022;23;20394;-83
2023/12/17 06:37:45;;;;;;;18.13;10.60;;;7.80;1.00;;;;;;6206444;23;20209;-83
2023/12/17 06:40:10;;;;;;;20.60;11.10;;;7.80;1.00;;;;;;6182305;23;20154;-84
2023/12/17 06:42:36;;;;;;;17.40;10.27;;;7.80;1.00;;;;;;6204243;23;20155;-84
2023/12/17 06:45:02;;;;;;;20.00;10.43;;;7.80;1.00;;;;;;6182160;23;20175;-83
2023/12/17 06:47:27;;;;;;;19.43;11.57;;;7.70;1.00;;;;;;6181820;23;20182;-84
2023/12/17 06:49:54;;;;;;;22.23;11.40;;;7.70;1.00;;;;;;6183395;23;20233;-84
2023/12/17 06:52:19;;;;;;;21.57;10.90;;;7.70;1.00;;;;;;6206786;23;20162;-83
2023/12/17 06:54:45;;;;;;;21.73;11.97;;;7.70;1.00;;;;;;6181805;23;20711;-83
2023/12/17 06:57:10;;;;;;;22.73;11.30;;;7.60;1.00;;;;;;6183031;23;20158;-84
2023/12/17 06:59:36;;;;;;;17.60;11.33;;;7.60;1.00;;;;;;6182464;23;20163;-84
2023/12/17 07:02:02;;;;;;;22.17;11.90;;;7.60;1.00;;;;;;6182121;23;20155;-84
2023/12/17 07:04:27;;;;;;;19.37;10.10;;;7.60;1.00;;;;;;6179997;23;20194;-84
2023/12/17 07:06:53;;;;;;;23.20;11.33;;;7.60;1.00;;;;;;6205245;23;20466;-83
2023/12/17 07:09:18;;;;;;;16.53;9.67;;;7.60;1.00;;;;;;6182035;23;20754;-83
2023/12/17 07:11:44;;;;;;;15.37;9.20;;;7.60;1.00;;;;;;6181032;23;20205;-82
2023/12/17 07:14:09;;;;;;;15.17;10.30;;;7.60;1.00;;;;;;6182579;23;20654;-83
2023/12/17 07:16:35;;;;;;;18.07;11.00;;;7.60;1.00;;;;;;6182079;23;20166;-81
2023/12/17 07:19:00;;;;;;;19.60;10.67;;;7.60;1.00;;;;;;6183055;23;20147;-83
2023/12/17 07:21:26;;;;;;;18.03;9.90;;;7.60;1.00;;;;;;6181763;23;20226;-84
2023/12/17 07:23:51;;;;;;;21.70;12.20;;;7.50;1.00;;;;;;6181754;23;20155;-81
2023/12/17 07:26:17;;;;;;;19.23;10.80;;;7.50;1.00;;;;;;6183143;23;20155;-82
2023/12/17 07:28:42;;;;;;;17.87;11.73;;;7.50;1.00;;;;;;6180829;23;20178;-83
2023/12/17 07:31:08;;;;;;;20.33;11.60;;;7.50;1.00;;;;;;6182968;23;20226;-82
2023/12/17 07:33:34;;;;;;;18.93;10.83;;;7.60;1.00;;;;;;6181244;23;21009;-82
2023/12/17 07:35:59;;;;;;;18.17;10.47;;;7.70;1.00;;;;;;6206161;23;20174;-82
2023/12/17 07:38:25;;;;;;;19.90;12.60;;;7.70;1.00;;;;;;6182751;23;20167;-82
2023/12/17 07:40:50;;;;;;;22.00;12.53;;;7.70;1.00;;;;;;6182933;23;20217;-83
2023/12/17 07:43:16;;;;;;;22.93;13.20;;;7.80;1.00;;;;;;6205604;23;20170;-82
2023/12/17 07:45:41;;;;;;;21.30;12.80;;;7.80;1.00;;;;;;6181058;23;20175;-80
2023/12/17 07:48:07;;;;;;;20.90;11.70;;;7.80;1.00;;;;;;6182404;23;20186;-81
2023/12/17 07:50:32;;;;;;;23.93;13.27;;;7.90;1.00;;;;;;6182499;23;20150;-82
2023/12/17 07:52:58;;;;;;;22.27;12.27;;;7.90;1.00;;;;;;6183455;23;20147;-82
2023/12/17 07:55:23;;;;;;;23.37;11.80;;;7.90;1.00;;;;;;6184153;23;20177;-82
2023/12/17 07:57:49;;;;;;;20.67;11.70;;;7.90;1.00;;;;;;6207698;23;20611;-81
2023/12/17 08:00:15;;;;;;;19.43;11.37;;;7.90;1.00;;;;;;6183368;23;20501;-81
2023/12/17 08:02:41;;;;;;;18.37;9.80;;;7.90;1.00;;;;;;6183175;23;20496;-81
2023/12/17 08:05:07;;;;;;;19.03;11.10;;;7.90;1.00;;;;;;6181787;23;20190;-82
2023/12/17 08:07:33;;;;;;;17.23;11.90;;;8.00;1.00;;;;;;6206571;23;20945;-83
2023/12/17 08:09:58;;;;;;;19.63;10.97;;;8.00;1.00;;;;;;6184507;23;20234;-80
2023/12/17 08:12:24;;;;;;;20.30;12.10;;;7.90;1.00;;;;;;6181692;23;20409;-83
2023/12/17 08:14:50;;;;;;;26.70;13.03;;;7.90;1.00;;;;;;6182450;23;20258;-80
2023/12/17 08:17:15;;;;;;;22.00;13.57;;;7.90;1.00;;;;;;6208764;23;20194;-81
2023/12/17 08:19:42;;;;;;;25.37;14.10;;;7.90;1.00;;;;;;6184693;23;20242;-81
2023/12/17 08:22:10;;;;;;;26.87;13.93;;;7.90;1.00;;;;;;6208763;23;20166;-82
2023/12/17 08:24:36;;;;;;;25.17;13.10;;;7.90;1.00;;;;;;6187708;23;20452;-83
2023/12/17 08:27:02;;;;;;;26.37;14.83;;;7.90;1.00;;;;;;6186080;23;20433;-81
2023/12/17 08:29:29;;;;;;;23.50;13.47;;;7.90;1.00;;;;;;6208846;23;20151;-81
2023/12/17 08:31:55;;;;;;;23.17;14.20;;;7.90;1.00;;;;;;6184222;23;20739;-81
2023/12/17 08:34:24;;;;;;;29.17;13.60;;;7.90;1.00;;;;;;6208604;23;20790;-83
2023/12/17 08:36:50;;;;;;;27.30;13.30;;;7.90;1.00;;;;;;6185348;23;20691;-83
2023/12/17 08:39:16;;;;;;;24.97;14.70;;;7.90;1.00;;;;;;6183464;23;20451;-82
2023/12/17 08:41:41;;;;;;;24.60;15.30;;;7.90;1.00;;;;;;6182390;23;20374;-83
2023/12/17 08:44:07;;;;;;;24.00;14.57;;;7.90;1.00;;;;;;6182765;23;20175;-80
2023/12/17 08:46:33;;;;;;;26.20;14.50;;;7.90;1.00;;;;;;6208625;23;20386;-81
2023/12/17 08:48:59;;;;;;;26.73;14.87;;;7.90;1.00;;;;;;6184042;23;20206;-83
2023/12/17 08:51:24;;;;;;;19.83;13.07;;;7.90;1.00;;;;;;6185267;23;20389;-81
2023/12/17 08:53:50;;;;;;;23.97;15.17;;;7.90;1.00;;;;;;6184520;23;20170;-81
2023/12/17 08:56:15;;;;;;;28.03;15.53;;;7.80;1.00;;;;;;6210020;23;20607;-83
2023/12/17 08:58:41;;;;;;;28.23;17.47;;;7.80;1.00;;;;;;6184590;23;20163;-81
2023/12/17 09:01:06;;;;;;;26.07;14.90;;;7.80;1.00;;;;;;6183226;23;20467;-82
2023/12/17 09:03:32;;;;;;;28.20;15.80;;;7.80;1.00;;;;;;6185789;23;20150;-82
2023/12/17 09:05:59;;;;;;;25.50;15.57;;;7.90;1.00;;;;;;6183977;23;20538;-81
2023/12/17 09:08:25;;;;;;;23.10;14.43;;;7.90;1.00;;;;;;6184200;23;20182;-81
2023/12/17 09:10:50;;;;;;;23.13;14.23;;;7.80;1.00;;;;;;6182721;23;20614;-82
2023/12/17 09:13:16;;;;;;;24.37;14.17;;;7.80;1.00;;;;;;6184536;23;20159;-83
2023/12/17 09:15:41;;;;;;;20.90;13.70;;;7.80;1.00;;;;;;6185603;23;20563;-82
2023/12/17 09:18:07;;;;;;;24.40;15.27;;;7.80;1.00;;;;;;6208711;23;20155;-80
2023/12/17 09:20:32;;;;;;;28.10;16.50;;;7.80;1.00;;;;;;6185343;23;20201;-82
2023/12/17 09:22:59;;;;;;;22.23;13.77;;;7.80;1.00;;;;;;6184854;23;20167;-81
2023/12/17 09:25:24;;;;;;;17.50;11.20;;;7.80;1.00;;;;;;6184798;23;20751;-81
2023/12/17 09:27:53;;;;;;;19.80;13.03;;;7.90;1.00;;;;;;6184090;23;20421;-82
2023/12/17 09:30:19;;;;;;;17.00;11.70;;;7.90;1.00;;;;;;6181672;23;20698;-81
2023/12/17 09:32:45;;;;;;;19.33;11.53;;;7.90;1.00;;;;;;6207941;23;20390;-82
2023/12/17 09:35:11;;;;;;;12.80;8.77;;;7.90;1.00;;;;;;6182567;23;20167;-82
2023/12/17 09:37:37;;;;;;;13.00;8.63;;;8.00;1.00;;;;;;6184223;23;20454;-82
2023/12/17 09:40:04;;;;;;;12.80;7.97;;;7.90;1.00;;;;;;6183050;23;20382;-82
2023/12/17 09:42:30;;;;;;;12.77;8.80;;;7.90;1.00;;;;;;6183662;23;20370;-82
2023/12/17 09:44:56;;;;;;;13.63;8.53;;;7.90;1.00;;;;;;6182536;23;20473;-80
2023/12/17 09:47:21;;;;;;;14.23;9.00;;;7.90;1.00;;;;;;6206675;23;20458;-82
2023/12/17 09:49:47;;;;;;;12.13;7.17;;;8.00;1.00;;;;;;6181296;23;20238;-82
2023/12/17 09:52:17;;;;;;;14.10;7.43;;;8.00;1.00;;;;;;6182896;23;20155;-82
2023/12/17 09:54:43;;;;;;;11.60;7.10;;;8.10;1.00;;;;;;6181466;23;20167;-82
2023/12/17 09:57:11;;;;;;;13.67;8.10;;;8.20;1.00;;;;;;6181618;23;20417;-82
2023/12/17 09:59:37;;;;;;;14.60;7.30;;;8.10;1.00;;;;;;6180105;23;20383;-83
2023/12/17 10:02:02;;;;;;;13.37;8.13;;;8.10;1.00;;;;;;6179658;23;20401;-83
2023/12/17 10:04:28;;;;;;;13.40;9.40;;;8.20;1.00;;;;;;6183955;23;20186;-82
2023/12/17 10:06:53;;;;;;;11.90;7.43;;;8.10;1.00;;;;;;6210168;23;20167;-82
2023/12/17 10:09:19;;;;;;;11.13;7.73;;;8.20;1.00;;;;;;6209194;23;20155;-82
2023/12/17 10:11:45;;;;;;;10.40;7.00;;;8.10;1.00;;;;;;6186282;23;20610;-82
2023/12/17 10:14:24;;;;;;;11.90;8.27;;;8.10;1.00;;;;;;6187380;23;20257;-82
2023/12/17 10:16:53;;;;;;;10.93;6.67;;;8.10;1.00;;;;;;6211742;23;20461;-83
2023/12/17 10:19:19;;;;;;;10.17;6.70;;;8.10;1.00;;;;;;6188286;23;20374;-81
2023/12/17 10:21:45;;;;;;;11.40;7.70;;;8.10;1.00;;;;;;6186772;23;20449;-84
2023/12/17 10:24:10;;;;;;;12.27;7.00;;;8.00;1.00;;;;;;6188544;23;20582;-82
2023/12/17 10:26:46;;;;;;;10.57;6.90;;;8.10;1.00;;;;;;6188318;23;20390;-83
2023/12/17 10:29:18;;;;;;;9.20;6.50;;;8.10;1.00;;;;;;6187584;23;20162;-82
2023/12/17 10:31:44;;;;;;;9.93;6.40;;;8.20;1.00;;;;;;6188761;23;20822;-82
2023/12/17 10:34:18;;;;;;;9.23;6.13;;;8.20;1.00;;;;;;6188011;23;20421;-82
2023/12/17 10:36:47;;;;;;;8.77;6.17;;;8.30;1.00;;;;;;6212028;23;20782;-82
2023/12/17 10:39:14;;;;;;;8.87;6.70;;;8.40;1.00;;;;;;6187765;23;20366;-84
2023/12/17 10:41:41;;;;;;;9.53;6.50;;;8.50;1.00;;;;;;6187035;23;20366;-84
2023/12/17 10:44:14;;;;;;;11.03;6.90;;;8.70;1.00;;;;;;6187749;23;20394;-82
2023/12/17 10:46:44;;;;;;;14.23;7.13;;;8.80;99.90;;;;;;6185561;23;20454;-83
2023/12/17 10:49:11;;;;;;;9.97;5.87;;;9.00;99.90;;;;;;6187063;23;20719;-83
2023/12/17 10:51:38;;;;;;;10.50;6.97;;;9.10;99.90;;;;;;6186444;23;20473;-81
2023/12/17 10:54:05;;;;;;;13.00;7.87;;;9.20;90.00;;;;;;6187687;23;22068;-83
2023/12/17 10:56:34;;;;;;;11.20;7.23;;;9.30;1.00;;;;;;6185808;23;20370;-83
2023/12/17 10:59:05;;;;;;;14.93;8.10;;;9.50;1.00;;;;;;6186487;23;20382;-82
2023/12/17 11:01:32;;;;;;;15.60;7.67;;;9.50;99.90;;;;;;6184831;23;20401;-82
2023/12/17 11:03:58;;;;;;;13.60;7.50;;;9.70;61.50;;;;;;6184017;23;20374;-83
2023/12/17 11:06:23;;;;;;;14.03;8.50;;;9.80;99.90;;;;;;6183193;23;20363;-82
2023/12/17 11:08:49;;;;;;;15.03;8.20;;;10.00;99.90;;;;;;6182792;23;20516;-83
2023/12/17 11:11:15;;;;;;;14.60;8.17;;;10.20;99.90;;;;;;6184738;23;20160;-83
2023/12/17 11:13:41;;;;;;;18.20;9.57;;;10.40;1.00;;;;;;6181813;23;20509;-83
2023/12/17 11:16:20;;;;;;;14.00;7.73;;;10.60;99.90;;;;;;6183644;23;20194;-83
2023/12/17 11:18:45;;;;;;;13.77;8.17;;;10.70;99.90;;;;;;6180357;23;20165;-83
2023/12/17 11:21:12;;;;;;;13.73;8.80;;;10.80;1.00;;;;;;6182808;23;20410;-83
2023/12/17 11:23:38;;;;;;;16.40;7.97;;;10.80;99.90;;;;;;6183910;23;20328;-85
2023/12/17 11:26:05;;;;;;;15.13;8.77;;;10.80;99.90;;;;;;6183879;23;20881;-83
2023/12/17 11:28:32;;;;;;;11.37;7.40;;;11.10;1.00;;;;;;6182938;23;20421;-84
2023/12/17 11:30:58;;;;;;;14.63;7.90;;;11.70;99.90;;;;;;6182678;23;20409;-82
2023/12/17 11:33:25;;;;;;;13.00;7.20;;;12.40;1.00;;;;;;6208592;23;20398;-83
2023/12/17 11:35:51;;;;;;;17.37;7.77;;;13.10;99.90;;;;;;6207857;23;20456;-81
2023/12/17 11:38:17;;;;;;;9.83;7.03;;;14.00;1.00;;;;;;6184179;23;20792;-83
2023/12/17 11:40:43;;;;;;;9.93;7.03;;;14.70;1.00;;;;;;6184018;23;20401;-84
2023/12/17 11:43:09;;;;;;;12.53;7.53;;;15.50;1.00;;;;;;6184611;23;20374;-85
2023/12/17 11:45:36;;;;;;;11.90;7.40;;;16.20;1.00;;;;;;6208612;23;20414;-84
2023/12/17 11:48:17;;;;;;;9.57;7.13;;;16.90;1.00;;;;;;6183551;23;20183;-84
2023/12/17 11:50:52;;;;;;;10.33;7.77;;;17.10;1.00;;;;;;6184423;23;20425;-84
2023/12/17 11:53:19;;;;;;;11.10;5.70;;;17.40;1.00;;;;;;6206234;23;20394;-84
2023/12/17 11:55:52;;;;;;;11.80;7.87;;;17.80;1.00;;;;;;6182790;23;20397;-83
2023/12/17 11:58:20;;;;;;;10.53;6.93;;;17.90;99.90;;;;;;6184740;23;20479;-81
2023/12/17 12:01:09;;;;;;;11.60;6.73;;;17.90;99.90;;;;;;6184426;23;20374;-79
2023/12/17 12:03:36;;;;;;;16.37;8.00;;;18.00;99.90;;;;;;6183282;23;20377;-80
2023/12/17 12:06:12;;;;;;;15.10;6.87;;;17.90;99.90;;;;;;6184704;23;20437;-81
2023/12/17 12:08:45;;;;;;;13.30;7.33;;;17.80;99.90;;;;;;6182960;23;20410;-81
2023/12/17 12:11:13;;;;;;;13.40;5.93;;;17.70;99.90;;;;;;6209022;23;20393;-83
2023/12/17 12:13:43;;;;;;;14.47;6.47;;;17.60;99.90;;;;;;6185871;23;20374;-82
2023/12/17 12:16:09;;;;;;;12.90;6.50;;;17.60;99.90;;;;;;6186537;23;20402;-80
2023/12/17 12:18:35;;;;;;;11.80;5.83;;;17.60;99.90;;;;;;6184894;23;20385;-83
2023/12/17 12:21:01;;;;;;;16.77;6.20;;;17.80;99.90;;;;;;6185784;23;20410;-82
2023/12/17 12:23:26;;;;;;;10.53;5.33;;;18.10;99.90;;;;;;6186033;23;20161;-83
2023/12/17 12:26:00;;;;;;;12.00;5.60;;;18.20;99.90;;;;;;6208947;23;20183;-83
2023/12/17 12:28:27;;;;;;;12.30;6.13;;;18.20;99.90;;;;;;6185217;23;20627;-83
2023/12/17 12:30:52;;;;;;;10.13;5.73;;;18.10;99.90;;;;;;6186885;23;20385;-83
2023/12/17 12:33:19;;;;;;;11.73;5.13;;;18.30;99.90;;;;;;6183790;23;20989;-80
2023/12/17 12:35:46;;;;;;;10.37;5.37;;;18.60;99.90;;;;;;6187292;23;20178;-82
2023/12/17 12:38:25;;;;;;;11.20;5.80;;;18.50;99.90;;;;;;6208302;23;20440;-79